Time;durP1;ratioP1;P1;durP2;ratioP2;P2;SDS_P1;SDS_P2;PMS_P1;PMS_P2;Temp;Humidity;BMP_temperature;BMP_pressure;BME280_temperature;BME280_humidity;BME280_pressure;Samples;Min_cycle;Max_cycle;Signal;HPM_P1;HPM_P2
2021/06/01 00:01:51;;;;;;;11.88;7.20;;;;;;;6.08;69.73;97474.27;1768629;81;25726;-87
2021/06/01 00:04:20;;;;;;;15.05;7.30;;;;;;;6.06;69.80;97473.62;1768592;81;27367;-90
2021/06/01 00:06:47;;;;;;;11.38;6.80;;;;;;;6.04;69.74;97472.96;1768531;81;25625;-89
2021/06/01 00:09:18;;;;;;;11.97;6.42;;;;;;;5.99;69.84;97472.69;1768505;81;26504;-88
2021/06/01 00:11:45;;;;;;;13.45;6.95;;;;;;;5.87;69.93;97472.76;1768748;81;26005;-87
2021/06/01 00:14:13;;;;;;;9.88;5.97;;;;;;;5.83;70.18;97467.42;1768736;81;25729;-90
2021/06/01 00:16:40;;;;;;;13.43;7.22;;;;;;;5.84;70.36;97470.44;1768636;81;27332;-81
2021/06/01 00:19:09;;;;;;;15.78;7.53;;;;;;;5.86;70.37;97464.39;1768515;81;25677;-89
2021/06/01 00:21:38;;;;;;;14.55;7.72;;;;;;;5.85;70.36;97464.57;1768467;81;25689;-90
2021/06/01 00:24:06;;;;;;;13.15;7.15;;;;;;;5.79;70.37;97469.66;1768440;81;26254;-85
2021/06/01 00:26:33;;;;;;;11.03;7.20;;;;;;;5.76;70.44;97461.97;1768591;81;25624;-84
2021/06/01 00:29:00;;;;;;;11.33;7.50;;;;;;;5.76;70.44;97463.31;1768539;79;27329;-90
2021/06/01 00:31:27;;;;;;;9.85;6.65;;;;;;;5.77;70.36;97466.31;1768406;81;26248;-87
2021/06/01 00:33:53;;;;;;;9.80;6.15;;;;;;;5.75;70.33;97468.84;1755361;81;25678;-90
2021/06/01 00:36:20;;;;;;;9.33;6.47;;;;;;;5.71;70.28;97471.54;1744472;81;25693;-84
2021/06/01 00:38:47;;;;;;;15.93;7.10;;;;;;;5.68;70.28;97471.89;1768662;81;25679;-90
2021/06/01 00:41:14;;;;;;;13.70;7.78;;;;;;;5.63;70.31;97472.95;1768501;79;27347;-89
2021/06/01 00:43:41;;;;;;;10.63;7.00;;;;;;;5.57;70.39;97468.30;1765611;81;25588;-90
2021/06/01 00:46:07;;;;;;;16.23;6.67;;;;;;;5.52;70.43;97467.50;1765486;81;25638;-89
2021/06/01 00:48:34;;;;;;;9.60;6.37;;;;;;;5.50;70.47;97474.05;1765559;81;25764;-90
2021/06/01 00:51:01;;;;;;;17.23;6.90;;;;;;;5.50;70.58;97473.54;1765610;81;26289;-90
2021/06/01 00:53:28;;;;;;;9.98;6.55;;;;;;;5.50;70.67;97472.20;1765535;81;28031;-86
2021/06/01 00:55:55;;;;;;;8.50;6.60;;;;;;;5.50;70.70;97476.72;1765601;81;25231;-91
2021/06/01 00:58:22;;;;;;;13.70;6.00;;;;;;;5.47;70.60;97483.77;1765744;81;25620;-91
2021/06/01 01:03:26;;;;;;;11.53;7.03;;;;;;;5.44;70.65;97476.41;1765570;81;25628;-90
2021/06/01 01:06:02;;;;;;;14.10;6.35;;;;;;;5.42;70.68;97477.12;1765450;81;27351;-90
2021/06/01 01:08:46;;;;;;;10.35;5.85;;;;;;;5.42;70.75;97478.45;1764333;81;26348;-86
2021/06/01 01:11:18;;;;;;;12.28;6.72;;;;;;;5.39;70.86;97478.80;1747917;81;25804;-89
2021/06/01 01:13:53;;;;;;;10.38;6.50;;;;;;;5.37;70.92;97476.80;1734638;81;25650;-87
2021/06/01 01:16:24;;;;;;;13.15;8.93;;;;;;;5.35;71.03;97473.46;1734595;81;25662;-87
2021/06/01 01:19:16;;;;;;;15.40;7.62;;;;;;;5.29;71.05;97472.84;1734804;81;27505;-88
2021/06/01 01:21:49;;;;;;;9.17;5.10;;;;;;;5.18;71.16;97471.91;1734839;81;26184;-90
2021/06/01 01:24:47;;;;;;;13.18;7.08;;;;;;;5.19;71.45;97474.92;1734766;81;25866;-88
2021/06/01 01:27:25;;;;;;;12.28;6.83;;;;;;;5.21;71.51;97467.52;1715139;82;26136;-88
2021/06/01 01:29:53;;;;;;;8.98;6.45;;;;;;;5.22;71.63;97467.85;1734434;82;25651;-87
2021/06/01 01:32:37;;;;;;;12.18;6.87;;;;;;;5.25;71.73;97475.53;1734620;82;27909;-87
2021/06/01 01:35:06;;;;;;;10.03;6.33;;;;;;;5.26;71.84;97470.52;1734432;82;25540;-88
2021/06/01 01:37:36;;;;;;;12.50;6.65;;;;;;;5.28;71.87;97469.84;1760443;81;25645;-89
2021/06/01 01:40:06;;;;;;;8.40;5.90;;;;;;;5.31;71.80;97469.46;1765501;81;26220;-90
2021/06/01 01:42:43;;;;;;;8.95;5.95;;;;;;;5.31;71.76;97466.78;1778050;79;25846;-88
2021/06/01 01:45:17;;;;;;;10.05;6.40;;;;;;;5.31;71.85;97470.00;1796274;79;26827;-86
2021/06/01 01:50:15;;;;;;;16.35;7.05;;;;;;;5.29;71.93;97467.49;1796194;79;25663;-89
2021/06/01 01:52:43;;;;;;;11.50;6.78;;;;;;;5.29;71.98;97470.17;1765710;79;26256;-88
2021/06/01 01:55:12;;;;;;;8.43;5.62;;;;;;;5.30;71.94;97464.31;1764222;81;25604;-85
2021/06/01 01:57:46;;;;;;;7.50;6.03;;;;;;;5.30;71.92;97464.31;1783818;79;27247;-87
2021/06/01 02:00:16;;;;;;;10.68;6.55;;;;;;;5.29;71.99;97462.14;1775642;79;25756;-87
2021/06/01 02:02:46;;;;;;;10.18;7.20;;;;;;;5.28;72.03;97465.83;1796300;79;26316;-85
2021/06/01 02:05:14;;;;;;;8.28;5.70;;;;;;;5.19;71.93;97464.22;1796331;79;25669;-87
2021/06/01 02:07:41;;;;;;;12.65;6.37;;;;;;;5.11;72.03;97461.56;1796303;79;25700;-87
2021/06/01 02:10:10;;;;;;;12.40;6.25;;;;;;;5.12;72.16;97463.23;1796133;79;27336;-88
2021/06/01 02:12:38;;;;;;;18.02;8.98;;;;;;;5.13;72.18;97462.73;1792433;79;26246;-89
2021/06/01 02:15:09;;;;;;;14.45;8.58;;;;;;;5.12;72.12;97459.72;1779087;80;25703;-87
2021/06/01 02:17:36;;;;;;;13.70;7.83;;;;;;;5.08;72.06;97455.22;1778978;80;26127;-87
2021/06/01 02:20:06;;;;;;;12.37;7.20;;;;;;;5.09;72.01;97459.56;1779050;80;25664;-85
2021/06/01 02:25:21;;;;;;;9.35;5.83;;;;;;;5.03;72.02;97456.27;1778868;80;25910;-88
2021/06/01 02:28:20;;;;;;;10.38;5.50;;;;;;;5.00;72.07;97463.30;1779070;80;25613;-88
2021/06/01 02:30:57;;;;;;;9.20;6.22;;;;;;;4.96;72.00;97460.12;1779085;80;26110;-89
2021/06/01 02:33:26;;;;;;;8.75;5.42;;;;;;;4.92;72.03;97461.51;1778127;80;25659;-88
2021/06/01 02:35:53;;;;;;;9.08;5.65;;;;;;;4.90;71.94;97458.67;1765095;79;28012;-88
2021/06/01 02:38:20;;;;;;;7.70;5.78;;;;;;;4.88;71.95;97460.68;1757259;79;25606;-87
2021/06/01 02:40:51;;;;;;;10.05;5.83;;;;;;;4.82;71.96;97455.54;1752663;80;25685;-86
2021/06/01 02:43:19;;;;;;;6.83;5.55;;;;;;;4.80;72.03;97454.04;1726249;81;25906;-88
2021/06/01 02:45:47;;;;;;;10.23;5.45;;;;;;;4.76;72.01;97456.72;1742872;79;25672;-89
2021/06/01 02:48:17;;;;;;;9.73;5.53;;;;;;;4.72;71.98;97453.55;1730871;80;28099;-88
2021/06/01 02:50:46;;;;;;;9.18;5.37;;;;;;;4.69;71.96;97453.42;1732815;81;25665;-88
2021/06/01 02:53:14;;;;;;;6.22;5.05;;;;;;;4.65;71.97;97454.77;1730986;80;26267;-88
2021/06/01 02:55:42;;;;;;;7.75;5.00;;;;;;;4.63;72.05;97455.43;1730822;80;25581;-86
2021/06/01 02:58:11;;;;;;;6.85;5.12;;;;;;;4.61;72.06;97457.44;1730711;80;25704;-86
2021/06/01 03:00:40;;;;;;;10.58;5.20;;;;;;;4.59;72.18;97454.10;1745538;79;27327;-85
2021/06/01 03:03:09;;;;;;;8.50;5.33;;;;;;;4.59;72.20;97458.11;1737321;80;25666;-81
2021/06/01 03:05:37;;;;;;;9.88;5.25;;;;;;;4.58;72.24;97460.48;1730724;81;25589;-79
2021/06/01 03:08:21;;;;;;;8.83;5.42;;;;;;;4.57;72.27;97460.66;1727634;80;26530;-81
2021/06/01 03:10:47;;;;;;;7.33;5.17;;;;;;;4.55;72.29;97461.32;1737904;80;25590;-81
2021/06/01 03:13:14;;;;;;;8.30;4.65;;;;;;;4.52;72.23;97465.67;1727689;80;27321;-84
2021/06/01 03:15:41;;;;;;;9.08;5.28;;;;;;;4.48;72.30;97462.49;1737865;81;25976;-83
2021/06/01 03:18:07;;;;;;;7.30;5.08;;;;;;;4.45;72.35;97468.70;1760957;80;25613;-87
2021/06/01 03:20:34;;;;;;;7.83;4.97;;;;;;;4.44;72.44;97465.70;1761016;80;25669;-82
2021/06/01 03:23:00;;;;;;;10.93;5.30;;;;;;;4.46;72.46;97469.87;1760955;80;25660;-82
2021/06/01 03:25:27;;;;;;;6.45;4.90;;;;;;;4.46;72.49;97463.70;1756424;80;27313;-85
2021/06/01 03:27:54;;;;;;;8.78;5.28;;;;;;;4.47;72.56;97468.84;1727422;80;25711;-87
2021/06/01 03:30:21;;;;;;;7.92;5.62;;;;;;;4.46;72.62;97469.87;1729037;79;25634;-85
2021/06/01 03:32:48;;;;;;;10.32;5.85;;;;;;;4.48;72.66;97473.19;1761127;79;25716;-85
2021/06/01 03:35:14;;;;;;;7.60;5.80;;;;;;;4.47;72.71;97474.19;1738785;80;25744;-88
2021/06/01 03:37:41;;;;;;;8.68;6.72;;;;;;;4.46;72.81;97469.05;1751135;80;27338;-86
2021/06/01 03:40:09;;;;;;;9.35;6.65;;;;;;;4.46;72.86;97463.20;1746724;80;25602;-86
2021/06/01 03:42:36;;;;;;;9.75;5.95;;;;;;;4.48;72.90;97467.84;1753836;80;25633;-87
2021/06/01 03:45:04;;;;;;;10.85;6.78;;;;;;;4.49;72.96;97466.84;1721847;80;25606;-86
2021/06/01 03:47:33;;;;;;;11.22;7.45;;;;;;;4.50;73.08;97471.18;1723933;80;25700;-85
2021/06/01 03:50:00;;;;;;;12.33;8.68;;;;;;;4.50;73.17;97471.18;1755261;80;28073;-86
2021/06/01 03:52:26;;;;;;;14.25;9.33;;;;;;;4.52;73.23;97467.84;1732025;80;25357;-83
2021/06/01 03:54:53;;;;;;;16.80;9.40;;;;;;;4.53;73.31;97464.16;1724362;80;25629;-87
2021/06/01 03:57:20;;;;;;;13.60;9.13;;;;;;;4.55;73.34;97466.67;1721747;80;26048;-88
2021/06/01 03:59:46;;;;;;;23.52;9.95;;;;;;;4.59;73.39;97472.81;1745406;80;25585;-85
2021/06/01 04:02:13;;;;;;;17.40;11.03;;;;;;;4.60;73.44;97470.47;1739105;80;27328;-87
2021/06/01 04:04:40;;;;;;;18.25;11.88;;;;;;;4.63;73.45;97466.12;1750975;80;25640;-86
2021/06/01 04:07:11;;;;;;;18.27;12.60;;;;;;;4.67;73.44;97463.95;1736221;80;25650;-85
2021/06/01 04:09:38;;;;;;;14.18;10.80;;;;;;;4.71;73.50;97465.25;1755050;81;25701;-87
2021/06/01 04:12:06;;;;;;;16.30;9.93;;;;;;;4.75;73.60;97468.42;1742709;80;25575;-85
2021/06/01 04:14:33;;;;;;;12.25;8.65;;;;;;;4.77;73.62;97457.89;1721796;80;27394;-86
2021/06/01 04:16:59;;;;;;;14.30;9.08;;;;;;;4.82;73.70;97464.06;1738350;80;25656;-84
2021/06/01 04:19:26;;;;;;;15.50;8.88;;;;;;;4.85;73.74;97459.69;1721892;80;25670;-85
2021/06/01 04:21:53;;;;;;;11.10;8.43;;;;;;;4.90;73.77;97468.03;1721752;80;26414;-85
2021/06/01 04:24:22;;;;;;;11.30;8.10;;;;;;;4.97;73.77;97470.33;1721870;80;25630;-84
2021/06/01 04:26:48;;;;;;;11.38;8.60;;;;;;;5.02;73.75;97477.34;1749610;80;27887;-85
2021/06/01 04:29:15;;;;;;;14.65;9.45;;;;;;;5.07;73.82;97474.45;1739981;80;25615;-86
2021/06/01 04:31:42;;;;;;;18.40;9.60;;;;;;;5.14;73.94;97471.09;1721590;80;25286;-84
2021/06/01 04:34:08;;;;;;;18.15;9.40;;;;;;;5.20;74.04;97472.54;1721790;80;25947;-86
2021/06/01 04:36:35;;;;;;;13.32;9.23;;;;;;;5.25;74.18;97470.19;1744136;80;26329;-86
2021/06/01 04:39:02;;;;;;;13.45;9.23;;;;;;;5.31;74.10;97472.14;1731752;80;27319;-85
2021/06/01 04:41:28;;;;;;;14.07;10.65;;;;;;;5.37;74.19;97468.77;1735837;80;25688;-79
2021/06/01 04:43:55;;;;;;;14.00;9.70;;;;;;;5.43;74.23;97469.38;1723344;80;25631;-80
2021/06/01 04:46:21;;;;;;;12.58;9.18;;;;;;;5.50;74.23;97471.37;1725013;80;25714;-86
2021/06/01 04:48:48;;;;;;;15.75;9.88;;;;;;;5.57;74.36;97466.45;1725083;80;25650;-86
2021/06/01 04:51:18;;;;;;;13.20;8.55;;;;;;;5.63;74.49;97464.92;1724896;80;27400;-80
2021/06/01 04:53:53;;;;;;;14.23;8.75;;;;;;;5.66;74.54;97464.06;1724867;80;25590;-82
2021/06/01 04:56:20;;;;;;;16.70;9.40;;;;;;;5.75;74.63;97467.00;1724947;80;25637;-80
2021/06/01 04:58:48;;;;;;;14.25;8.68;;;;;;;5.84;74.60;97467.75;1724979;80;25677;-79
2021/06/01 05:01:15;;;;;;;13.38;9.38;;;;;;;5.93;74.58;97472.56;1724935;80;25729;-82
2021/06/01 05:03:42;;;;;;;13.93;8.23;;;;;;;6.00;74.62;97474.36;1724996;80;27829;-79
2021/06/01 05:06:10;;;;;;;12.95;8.95;;;;;;;6.07;74.73;97471.27;1724807;80;25609;-84
2021/06/01 05:08:37;;;;;;;11.95;9.03;;;;;;;6.16;74.74;97467.19;1724891;80;25670;-84
2021/06/01 05:11:05;;;;;;;11.65;8.15;;;;;;;6.24;74.75;97464.42;1724939;80;25751;-82
2021/06/01 05:13:32;;;;;;;13.08;8.45;;;;;;;6.33;74.70;97467.34;1724892;80;25726;-84
2021/06/01 05:15:58;;;;;;;12.60;8.35;;;;;;;6.42;74.74;97466.23;1724907;80;27953;-85
2021/06/01 05:18:25;;;;;;;18.55;8.30;;;;;;;6.52;74.89;97463.30;1724928;80;25601;-86
2021/06/01 05:20:52;;;;;;;15.72;8.60;;;;;;;6.61;75.05;97461.68;1725011;80;26405;-84
2021/06/01 05:23:18;;;;;;;13.10;8.68;;;;;;;6.70;75.09;97460.56;1724849;80;26163;-79
2021/06/01 05:25:45;;;;;;;11.97;8.38;;;;;;;6.79;75.07;97456.75;1725017;80;25642;-80
2021/06/01 05:28:12;;;;;;;14.80;8.98;;;;;;;6.89;74.92;97457.80;1724877;80;27895;-80
2021/06/01 05:31:26;;;;;;;14.13;8.95;;;;;;;6.98;74.97;97455.87;1724726;80;25811;-80
2021/06/01 05:33:12;;;;;;;14.05;9.50;;;;;;;7.06;75.07;97457.93;1709102;80;26241;-82
2021/06/01 05:35:51;;;;;;;19.37;10.70;;;;;;;7.18;75.20;97455.59;1724991;80;25670;-81
2021/06/01 05:38:13;;;;;;;25.57;10.30;;;;;;;7.28;75.36;97456.63;1723972;80;25625;-85
2021/06/01 05:40:39;;;;;;;23.22;10.43;;;;;;;7.39;75.27;97460.16;1724981;80;27339;-83
2021/06/01 05:43:06;;;;;;;18.52;11.18;;;;;;;7.49;75.21;97461.51;1724876;80;25663;-84
2021/06/01 05:45:33;;;;;;;20.92;10.40;;;;;;;7.57;75.19;97447.14;1721760;80;25653;-82
2021/06/01 05:47:59;;;;;;;14.63;10.10;;;;;;;7.67;75.30;97455.70;1745326;80;26301;-84
2021/06/01 05:50:26;;;;;;;17.17;9.53;;;;;;;7.78;75.32;97452.51;1740912;81;26303;-85
2021/06/01 05:52:53;;;;;;;15.55;10.32;;;;;;;7.88;75.31;97453.52;1725741;80;27365;-81
2021/06/01 05:55:20;;;;;;;15.68;9.70;;;;;;;7.98;75.20;97455.36;1721709;80;25820;-84
2021/06/01 05:57:46;;;;;;;15.85;9.33;;;;;;;8.09;75.14;97456.72;1748270;80;25665;-82
2021/06/01 06:00:14;;;;;;;16.48;9.05;;;;;;;8.20;75.06;97457.53;1755355;80;26373;-83
2021/06/01 06:02:41;;;;;;;11.95;8.68;;;;;;;8.30;74.83;97460.19;1731808;80;26210;-81
2021/06/01 06:05:09;;;;;;;16.95;9.80;;;;;;;8.40;74.48;97455.01;1744699;80;27253;-84
2021/06/01 06:07:35;;;;;;;12.80;8.85;;;;;;;8.50;74.41;97454.14;1725701;80;25327;-83
2021/06/01 06:10:03;;;;;;;17.48;9.45;;;;;;;8.60;74.28;97455.45;1730911;80;25690;-81
2021/06/01 06:12:30;;;;;;;15.30;10.30;;;;;;;8.72;74.24;97452.20;1755280;81;25594;-83
2021/06/01 06:14:57;;;;;;;18.85;11.97;;;;;;;8.83;74.15;97452.47;1736678;80;25546;-83
2021/06/01 06:17:32;;;;;;;19.23;11.85;;;;;;;8.96;73.98;97451.70;1721768;80;27229;-82
2021/06/01 06:20:01;;;;;;;18.45;11.40;;;;;;;9.07;73.85;97452.99;1720413;80;25776;-83
2021/06/01 06:22:28;;;;;;;19.73;11.68;;;;;;;9.19;73.65;97454.08;1732797;80;25673;-83
2021/06/01 06:24:55;;;;;;;17.15;11.48;;;;;;;9.30;73.43;97457.02;1729934;80;25891;-81
2021/06/01 06:27:21;;;;;;;16.93;11.88;;;;;;;9.41;72.97;97456.15;1738500;80;25880;-83
2021/06/01 06:29:48;;;;;;;18.40;11.90;;;;;;;9.52;73.02;97454.20;1731890;80;27293;-86
2021/06/01 06:32:15;;;;;;;17.12;10.13;;;;;;;9.63;72.82;97450.40;1745371;80;25637;-86
2021/06/01 06:34:42;;;;;;;20.50;9.80;;;;;;;9.76;72.71;97450.94;1721894;80;25641;-85
2021/06/01 06:37:08;;;;;;;14.98;9.90;;;;;;;9.90;71.95;97451.80;1756910;80;26136;-84
2021/06/01 06:39:35;;;;;;;16.40;9.53;;;;;;;10.02;71.54;97447.45;1774528;80;25636;-84
2021/06/01 06:42:02;;;;;;;14.10;9.20;;;;;;;10.16;71.27;97449.61;1766844;80;28025;-88
2021/06/01 06:44:29;;;;;;;13.28;8.98;;;;;;;10.28;70.64;97449.33;1743788;80;25677;-88
2021/06/01 06:47:18;;;;;;;13.38;9.20;;;;;;;10.37;70.22;97444.88;1764783;80;25594;-86
2021/06/01 06:49:34;;;;;;;14.50;9.38;;;;;;;10.51;70.22;97437.56;1787089;80;26571;-83
2021/06/01 06:52:02;;;;;;;13.38;8.58;;;;;;;10.67;70.05;97435.78;1789558;78;25668;-83
2021/06/01 06:54:29;;;;;;;18.42;9.73;;;;;;;10.82;69.97;97431.50;1773468;80;27326;-85
2021/06/01 06:56:56;;;;;;;15.78;9.60;;;;;;;10.93;69.68;97429.48;1779463;80;25702;-86
2021/06/01 06:59:23;;;;;;;14.45;9.13;;;;;;;11.08;69.70;97430.06;1769736;80;25736;-85
2021/06/01 07:01:49;;;;;;;12.10;8.78;;;;;;;11.24;69.32;97430.59;1765711;80;25696;-86
2021/06/01 07:04:16;;;;;;;15.48;9.40;;;;;;;11.40;69.25;97431.47;1789879;80;25693;-83
2021/06/01 07:06:47;;;;;;;12.50;7.45;;;;;;;11.55;69.41;97421.20;1789848;80;27300;-83
2021/06/01 07:09:11;;;;;;;10.23;6.85;;;;;;;11.73;69.21;97425.34;1784845;80;25652;-85
2021/06/01 07:11:38;;;;;;;13.43;7.42;;;;;;;11.92;68.60;97425.47;1789916;78;25605;-85
2021/06/01 07:14:16;;;;;;;11.10;6.62;;;;;;;12.10;68.39;97430.92;1765562;80;25639;-85
2021/06/01 07:16:43;;;;;;;10.68;6.35;;;;;;;12.29;68.03;97413.72;1774413;79;25656;-83
2021/06/01 07:19:11;;;;;;;11.08;6.92;;;;;;;12.54;68.26;97414.52;1768229;80;27402;-83
2021/06/01 07:21:37;;;;;;;11.68;6.87;;;;;;;12.72;68.32;97413.70;1768157;80;25573;-83
2021/06/01 07:24:09;;;;;;;11.60;7.08;;;;;;;12.94;68.16;97412.19;1762345;80;25723;-87
2021/06/01 07:26:36;;;;;;;12.60;6.62;;;;;;;13.12;67.38;97419.50;1765593;79;25619;-86
2021/06/01 07:29:04;;;;;;;12.58;6.45;;;;;;;13.23;66.45;97407.92;1773799;80;25740;-84
2021/06/01 07:31:30;;;;;;;9.08;5.33;;;;;;;13.29;66.03;97407.00;1765738;80;27917;-84
2021/06/01 07:33:57;;;;;;;8.23;5.22;;;;;;;13.41;65.43;97407.58;1754696;80;25617;-87
2021/06/01 07:36:24;;;;;;;7.95;5.45;;;;;;;13.54;65.73;97408.22;1769350;80;25707;-83
2021/06/01 07:38:51;;;;;;;8.95;5.42;;;;;;;13.68;65.43;97412.41;1773916;80;25610;-84
2021/06/01 07:41:17;;;;;;;12.25;6.47;;;;;;;13.79;64.82;97410.79;1772466;79;25242;-85
2021/06/01 07:43:44;;;;;;;9.70;4.80;;;;;;;13.91;64.15;97408.94;1755195;81;27860;-84
2021/06/01 07:46:11;;;;;;;7.85;4.97;;;;;;;14.11;64.59;97407.28;1773026;80;25632;-87
2021/06/01 07:48:39;;;;;;;8.45;5.50;;;;;;;14.35;63.85;97402.70;1768730;80;25250;-88
2021/06/01 07:51:12;;;;;;;7.45;5.25;;;;;;;14.57;63.19;97404.33;1769450;80;25723;-87
2021/06/01 07:53:40;;;;;;;5.05;4.22;;;;;;;14.82;62.73;97400.83;1766926;80;26162;-85
2021/06/01 07:56:09;;;;;;;5.47;4.00;;;;;;;15.23;61.99;97403.86;1768227;80;27359;-86
2021/06/01 07:58:36;;;;;;;8.43;3.30;;;;;;;15.72;62.15;97409.73;1774816;80;25533;-85
2021/06/01 08:01:03;;;;;;;5.72;3.65;;;;;;;16.15;61.25;97405.91;1773394;80;25569;-85
2021/06/01 08:03:29;;;;;;;4.08;3.02;;;;;;;16.42;60.16;97407.98;1775291;79;25559;-92
2021/06/01 08:05:56;;;;;;;9.90;3.70;;;;;;;16.41;59.82;97407.69;1785545;80;25198;-86
2021/06/01 08:08:22;;;;;;;7.17;3.40;;;;;;;16.45;59.34;97408.82;1790998;80;27277;-86
2021/06/01 08:10:50;;;;;;;5.15;2.90;;;;;;;16.47;58.07;97408.04;1790798;80;25623;-88
2021/06/01 08:13:17;;;;;;;5.85;3.30;;;;;;;16.64;58.36;97410.26;1783305;80;25658;-87
2021/06/01 08:15:48;;;;;;;4.47;3.10;;;;;;;16.88;57.81;97406.25;1773293;79;25668;-86
2021/06/01 08:18:13;;;;;;;4.53;2.95;;;;;;;17.35;57.17;97400.30;1785011;80;25635;-85
2021/06/01 08:20:43;;;;;;;4.35;2.80;;;;;;;17.48;55.56;97397.19;1775047;79;28018;-87
2021/06/01 08:23:08;;;;;;;4.67;2.60;;;;;;;17.62;55.81;97403.91;1775061;79;25807;-88
2021/06/01 08:25:34;;;;;;;4.12;2.70;;;;;;;18.06;55.31;97403.83;1774158;80;25723;-88
2021/06/01 08:28:01;;;;;;;3.30;2.58;;;;;;;18.57;54.25;97400.16;1774913;80;26504;-87
2021/06/01 08:30:31;;;;;;;5.30;3.05;;;;;;;18.90;52.47;97397.12;1775081;80;25590;-86
2021/06/01 08:32:57;;;;;;;6.92;2.98;;;;;;;18.98;53.20;97400.70;1775081;80;28007;-91
2021/06/01 08:35:24;;;;;;;4.28;2.65;;;;;;;19.24;52.58;97393.45;1772066;80;26290;-85
2021/06/01 08:37:51;;;;;;;4.78;2.30;;;;;;;19.50;52.37;97399.89;1766606;80;25815;-87
2021/06/01 08:40:18;;;;;;;5.78;2.30;;;;;;;19.85;51.96;97400.53;1759041;80;25413;-86
2021/06/01 08:42:44;;;;;;;5.15;2.02;;;;;;;20.32;50.82;97400.31;1744449;80;25282;-85
2021/06/01 08:45:12;;;;;;;3.37;2.00;;;;;;;20.69;49.53;97391.00;1771609;80;27334;-85
2021/06/01 08:47:39;;;;;;;3.67;2.00;;;;;;;21.24;48.82;97379.67;1766338;80;25618;-87
2021/06/01 08:50:10;;;;;;;4.83;2.37;;;;;;;21.37;48.46;97388.13;1766686;80;25629;-89
2021/06/01 08:52:37;;;;;;;4.53;2.40;;;;;;;21.70;47.53;97388.52;1767016;80;25930;-83
2021/06/01 08:55:06;;;;;;;6.33;2.42;;;;;;;21.67;46.65;97385.77;1779929;80;25715;-89
2021/06/01 08:57:37;;;;;;;4.17;1.70;;;;;;;21.89;46.67;97390.31;1782554;80;28048;-86
2021/06/01 09:00:08;;;;;;;4.08;2.62;;;;;;;21.69;45.60;97394.56;1782393;80;26314;-87
2021/06/01 09:02:35;;;;;;;6.25;3.00;;;;;;;21.73;45.62;97386.58;1777850;80;25923;-83
2021/06/01 09:05:06;;;;;;;5.53;2.37;;;;;;;22.01;44.75;97379.00;1774918;80;25636;-87
2021/06/01 09:07:46;;;;;;;2.67;1.90;;;;;;;22.27;44.56;97379.64;1782573;79;25506;-87
2021/06/01 09:21:35;;;;;;;5.67;2.85;;;;;;;22.82;41.67;97387.18;1783669;80;25574;-86
2021/06/01 09:24:04;;;;;;;4.60;2.95;;;;;;;22.20;41.63;97386.85;1778472;80;27308;-88
2021/06/01 09:27:04;;;;;;;8.75;2.92;;;;;;;22.01;41.46;97378.17;1773802;80;25553;-92
2021/06/01 09:29:33;;;;;;;2.95;2.35;;;;;;;21.59;41.22;97383.62;1774975;80;26277;-86
2021/06/01 09:32:17;;;;;;;5.90;2.77;;;;;;;21.27;40.69;97381.83;1770596;80;25756;-91
2021/06/01 09:34:54;;;;;;;4.42;2.90;;;;;;;21.07;41.57;97390.38;1762660;80;25700;-92
2021/06/01 09:37:27;;;;;;;2.83;2.52;;;;;;;21.23;41.78;97382.14;1765599;79;27322;-86
2021/06/01 09:40:20;;;;;;;4.35;2.52;;;;;;;21.53;40.90;97387.48;1783452;80;25665;-91
2021/06/01 09:42:50;;;;;;;5.30;2.62;;;;;;;21.84;40.93;97378.00;1757186;80;25619;-87
2021/06/01 09:45:24;;;;;;;3.95;2.65;;;;;;;21.54;39.87;97380.34;1749479;80;26326;-85
2021/06/01 09:48:00;;;;;;;4.22;2.30;;;;;;;20.68;39.79;97377.02;1786857;80;25605;-91
2021/06/01 09:53:28;;;;;;;2.87;2.45;;;;;;;20.35;40.61;97355.95;1752489;80;25629;-87
2021/06/01 09:55:55;;;;;;;4.15;2.42;;;;;;;21.28;41.35;97367.83;1787318;79;25609;-90
2021/06/01 09:58:35;;;;;;;4.85;2.25;;;;;;;21.28;41.35;97367.83;1790738;80;25717;-90
2021/06/01 10:01:05;;;;;;;6.10;2.10;;;;;;;21.82;40.81;97355.47;1768274;80;25708;-92
2021/06/01 10:03:54;;;;;;;4.17;2.47;;;;;;;22.17;39.98;97368.73;1748179;80;27319;-86
2021/06/01 10:06:18;;;;;;;6.08;2.10;;;;;;;22.45;40.18;97372.08;1763254;80;25666;-92
2021/06/01 10:08:53;;;;;;;3.47;1.90;;;;;;;22.60;38.63;97361.47;1791688;80;25711;-90
2021/06/01 10:11:16;;;;;;;2.52;2.20;;;;;;;22.76;37.96;97363.00;1790025;79;26562;-90
2021/06/01 10:13:43;;;;;;;3.42;2.55;;;;;;;22.86;38.06;97358.77;1778169;80;25611;-89
2021/06/01 10:16:17;;;;;;;3.95;2.60;;;;;;;23.05;37.63;97360.23;1791555;80;27299;-90
2021/06/01 10:18:45;;;;;;;4.10;2.40;;;;;;;23.02;37.58;97362.73;1793055;80;25533;-84
2021/06/01 10:21:19;;;;;;;4.20;2.75;;;;;;;22.89;37.38;97356.00;1755875;80;25622;-87
2021/06/01 10:23:47;;;;;;;6.78;2.92;;;;;;;22.66;37.48;97344.38;1755654;80;25553;-95
2021/06/01 10:26:14;;;;;;;3.92;2.27;;;;;;;22.31;36.55;97355.97;1776334;80;25683;-90
2021/06/01 10:28:47;;;;;;;3.65;2.75;;;;;;;21.77;36.40;97359.61;1776937;80;27335;-92
2021/06/01 10:31:17;;;;;;;7.92;2.60;;;;;;;21.36;37.15;97359.03;1776551;80;25273;-92
2021/06/01 10:33:59;;;;;;;4.95;2.50;;;;;;;21.23;37.29;97362.92;1772852;80;25703;-91
2021/06/01 10:44:55;;;;;;;5.28;2.70;;;;;;;20.97;37.46;97357.48;1719536;83;26388;-90
2021/06/01 10:50:41;;;;;;;3.22;2.67;;;;;;;20.52;37.65;97364.45;1696985;82;26100;-91
2021/06/01 10:53:24;;;;;;;5.58;2.83;;;;;;;20.35;37.46;97360.06;1716381;83;25573;-93
2021/06/01 10:55:55;;;;;;;4.12;2.50;;;;;;;20.33;38.10;97364.95;1716532;83;27395;-87
2021/06/01 10:58:40;;;;;;;7.10;2.55;;;;;;;20.34;38.07;97367.97;1716838;83;25537;-88
2021/06/01 11:04:27;;;;;;;5.25;2.60;;;;;;;20.83;38.18;97361.91;1671357;83;26256;-88
2021/06/01 11:07:12;;;;;;;5.80;3.00;;;;;;;21.13;37.86;97354.16;1691577;83;25726;-88
2021/06/01 11:09:37;;;;;;;4.95;2.67;;;;;;;21.45;37.99;97355.95;1714241;83;27423;-95
2021/06/01 11:12:20;;;;;;;5.90;2.67;;;;;;;21.52;36.98;97339.16;1714423;82;25677;-91
2021/06/01 11:14:49;;;;;;;3.85;2.52;;;;;;;21.87;37.14;97343.06;1705148;83;25310;-86
2021/06/01 11:17:34;;;;;;;4.53;2.60;;;;;;;22.00;36.48;97337.50;1716222;83;25784;-91
2021/06/01 11:20:21;;;;;;;6.17;2.85;;;;;;;21.95;36.23;97347.70;1779967;80;25192;-87
2021/06/01 11:33:39;;;;;;;3.58;2.75;;;;;;;22.00;35.67;97340.80;1788960;80;25656;-95
2021/06/01 11:36:11;;;;;;;4.58;2.25;;;;;;;21.70;35.00;97333.02;1779156;80;27364;-89
2021/06/01 11:38:54;;;;;;;4.78;2.70;;;;;;;21.53;35.53;97332.02;1784424;79;25210;-92
2021/06/01 11:44:26;;;;;;;5.28;2.58;;;;;;;21.34;35.22;97310.44;1774102;80;25605;-89
2021/06/01 11:47:11;;;;;;;7.75;2.90;;;;;;;21.37;34.79;97304.94;1787334;79;25233;-92
2021/06/01 11:51:58;;;;;;;4.67;2.72;;;;;;;21.51;34.75;97335.59;1692914;80;25654;-96
2021/06/01 11:54:25;;;;;;;3.85;2.72;;;;;;;21.48;35.76;97330.69;1777501;80;25882;-90
2021/06/01 11:57:22;;;;;;;6.92;2.47;;;;;;;21.35;35.29;97332.67;1756492;81;25743;-94
2021/06/01 12:19:16;;;;;;;5.65;2.75;;;;;;;21.11;36.24;97325.61;1747403;80;25164;-92
2021/06/01 12:21:49;;;;;;;8.73;3.70;;;;;;;21.31;37.04;97319.78;1766748;80;25756;-94
2021/06/01 12:24:23;;;;;;;4.30;2.40;;;;;;;21.63;36.69;97320.14;1763475;80;26067;-96
2021/06/01 12:32:32;;;;;;;5.60;2.60;;;;;;;22.19;35.81;97323.35;1772428;80;25420;-93
2021/06/01 13:14:50;;;;;;;5.70;2.72;;;;;;;21.16;34.87;97309.66;1767259;80;25677;-87
2021/06/01 13:20:28;;;;;;;4.47;2.52;;;;;;;21.28;34.71;97309.35;1767281;80;25710;-92
2021/06/01 13:23:27;;;;;;;4.50;2.85;;;;;;;21.38;34.69;97301.06;1765859;80;25227;-93
2021/06/01 13:32:06;;;;;;;4.80;2.33;;;;;;;22.02;35.43;97317.42;1763119;80;25171;-88
2021/06/01 13:40:37;;;;;;;2.98;2.47;;;;;;;22.59;34.22;97312.50;1766924;80;45469;-91
2021/06/01 13:46:28;;;;;;;5.12;2.37;;;;;;;22.52;34.09;97291.41;1766434;80;25660;-91
2021/06/01 13:49:00;;;;;;;3.60;2.20;;;;;;;22.48;33.27;97310.97;1768266;80;25669;-91
2021/06/01 13:56:36;;;;;;;6.95;2.30;;;;;;;22.17;33.97;97313.19;1766786;80;25814;-86
2021/06/01 13:59:12;;;;;;;5.97;2.40;;;;;;;22.08;34.04;97297.61;1766742;80;25650;-85
2021/06/01 14:10:19;;;;;;;3.72;2.00;;;;;;;22.96;32.70;97302.23;1736696;80;26068;-90
2021/06/01 14:32:03;;;;;;;3.25;2.27;;;;;;;21.22;33.96;97292.11;1766838;80;25621;-90
2021/06/01 15:04:23;;;;;;;4.17;2.58;;;;;;;21.53;32.88;97280.38;1724232;81;25836;-89
2021/06/01 15:50:14;;;;;;;6.47;3.00;;;;;;;19.50;36.37;97280.80;1755416;80;26081;-84